Archival Weather

Republic

Farmingdale, New York (KFRG)

Report from: Wednesday, January 24, 2024 4:53 PM EST
Current time: Monday, June 17, 2024 3:25 AM EDT

Current weather – Weather history – Daily summaries
Weather forecast

Present weatherMist
Temperature6.1°C (43.0°F)
Wind chill4.6°C (40.3°F)
Dew point5.6°C (42.1°F)
Winds 4 kts (2.1 m/s, 4.6 mph) Southeast (130°)
Visibility2640 ft. (804.7 m)
Clouds Ceiling: Overcast 200 ft. (61 m)
Altimeter30.39 in.Hg (1029 mB)
Relative humidity97 %
Density altitude-1,475 ft. (-449 m)
Sea-level pressure102.9 kPa (1029 mB, 30.39 in.Hg)
Remarks Automated weather observing station with precipitation discriminator
Surface visibility
Flight conditions Low Instrument Meteorological Conditions
Raw dataKFRG 242153Z 13004KT 1/2SM BR OVC002 06/06 A3039 RMK AO2 SFC VIS 1 SLP290 T00610056
An error has occurred. This application may no longer respond until reloaded. Reload 🗙